createdAt,value
2022-09-24T00:01:44.063Z,14.00
2022-09-24T00:04:14.241Z,14.00
2022-09-24T00:06:44.684Z,14.00
2022-09-24T00:09:14.169Z,14.00
2022-09-24T00:11:43.575Z,14.00
2022-09-24T00:14:11.648Z,14.00
2022-09-24T00:16:41.312Z,14.00
2022-09-24T00:19:10.257Z,14.00
2022-09-24T00:21:40.746Z,14.00
2022-09-24T00:24:11.416Z,14.10
2022-09-24T00:26:50.391Z,14.10
2022-09-24T00:29:20.454Z,14.10
2022-09-24T00:31:49.132Z,14.10
2022-09-24T00:34:17.598Z,14.00
2022-09-24T00:36:47.216Z,14.00
2022-09-24T00:39:15.762Z,13.80
2022-09-24T00:41:48.793Z,13.90
2022-09-24T00:44:54.030Z,13.90
2022-09-24T00:47:38.322Z,14.00
2022-09-24T00:50:11.509Z,13.90
2022-09-24T00:52:46.320Z,13.80
2022-09-24T00:55:15.597Z,13.70
2022-09-24T00:57:44.870Z,13.60
2022-09-24T01:00:14.349Z,13.70
2022-09-24T01:02:47.519Z,13.80
2022-09-24T01:05:15.558Z,13.70
2022-09-24T01:07:46.042Z,13.80
2022-09-24T01:10:34.039Z,13.80
2022-09-24T01:13:11.340Z,13.90
2022-09-24T01:15:47.296Z,13.70
2022-09-24T01:18:26.263Z,13.60
2022-09-24T01:21:21.907Z,13.60
2022-09-24T01:24:29.753Z,13.60
2022-09-24T01:27:06.312Z,13.60
2022-09-24T01:29:46.574Z,13.50
2022-09-24T01:32:20.387Z,13.60
2022-09-24T01:34:53.325Z,13.50
2022-09-24T01:37:25.110Z,13.50
2022-09-24T01:39:54.702Z,13.40
2022-09-24T01:42:25.029Z,13.50
2022-09-24T01:44:55.947Z,13.40
2022-09-24T01:47:34.684Z,13.50
2022-09-24T01:50:03.932Z,13.40
2022-09-24T01:52:39.571Z,13.50
2022-09-24T01:55:11.309Z,13.60
2022-09-24T01:57:43.414Z,13.70
2022-09-24T02:00:15.471Z,13.60
2022-09-24T02:02:47.549Z,13.50
2022-09-24T02:05:24.120Z,13.40
2022-09-24T02:07:59.078Z,13.30
2022-09-24T02:10:33.545Z,13.50
2022-09-24T02:13:07.655Z,13.50
2022-09-24T02:15:42.704Z,13.50
2022-09-24T02:18:15.240Z,13.40
2022-09-24T02:20:45.062Z,13.30
2022-09-24T02:23:15.139Z,13.30
2022-09-24T02:25:48.892Z,13.20
2022-09-24T02:28:17.210Z,13.40
2022-09-24T02:30:51.501Z,13.40
2022-09-24T02:33:39.275Z,13.50
2022-09-24T02:36:08.189Z,13.50
2022-09-24T02:38:36.169Z,13.50
2022-09-24T02:41:04.853Z,13.30
2022-09-24T02:43:35.728Z,13.40
2022-09-24T02:46:05.298Z,13.40
2022-09-24T02:48:33.508Z,13.40
2022-09-24T02:51:04.082Z,13.30
2022-09-24T02:53:32.319Z,13.30
2022-09-24T02:56:01.391Z,13.30
2022-09-24T02:58:30.439Z,13.30
2022-09-24T03:00:58.614Z,13.30
2022-09-24T03:03:28.478Z,13.30
2022-09-24T03:05:56.559Z,13.30
2022-09-24T03:08:26.208Z,13.20
2022-09-24T03:10:56.077Z,13.30
2022-09-24T03:13:24.195Z,13.40
2022-09-24T03:15:52.291Z,13.30
2022-09-24T03:18:20.499Z,13.30
2022-09-24T03:20:57.426Z,13.20
2022-09-24T03:23:25.767Z,13.30
2022-09-24T03:25:53.872Z,13.30
2022-09-24T03:28:22.695Z,13.30
2022-09-24T03:31:02.175Z,13.20
2022-09-24T03:33:32.142Z,13.20
2022-09-24T03:36:03.126Z,13.30
2022-09-24T03:38:31.832Z,13.30
2022-09-24T03:41:00.621Z,13.30
2022-09-24T03:43:29.006Z,13.30
2022-09-24T03:45:57.052Z,13.20
2022-09-24T03:48:26.748Z,13.30
2022-09-24T03:50:56.625Z,13.40
2022-09-24T03:53:26.021Z,13.30
2022-09-24T03:55:56.566Z,13.20
2022-09-24T03:58:25.179Z,13.20
2022-09-24T04:00:54.155Z,13.20
2022-09-24T04:03:23.143Z,13.20
2022-09-24T04:05:51.858Z,13.10
2022-09-24T04:08:20.389Z,13.10
2022-09-24T04:10:50.647Z,13.10
2022-09-24T04:13:19.588Z,13.10
2022-09-24T04:15:48.912Z,13.10
2022-09-24T04:18:17.408Z,13.10
2022-09-24T04:20:45.582Z,13.10
2022-09-24T04:23:13.602Z,13.10
2022-09-24T04:25:41.593Z,13.10
2022-09-24T04:28:11.962Z,13.00
2022-09-24T04:30:40.538Z,13.10
2022-09-24T04:33:09.395Z,13.10
2022-09-24T04:35:37.419Z,13.10
2022-09-24T04:38:06.197Z,13.10
2022-09-24T04:40:34.239Z,13.00
2022-09-24T04:43:03.175Z,12.90
2022-09-24T04:45:32.685Z,12.90
2022-09-24T04:48:01.001Z,12.90
2022-09-24T04:50:33.186Z,12.90
2022-09-24T04:53:02.330Z,12.90
2022-09-24T04:55:32.104Z,12.90
2022-09-24T04:58:00.434Z,13.00
2022-09-24T05:00:28.456Z,13.00
2022-09-24T05:03:03.583Z,13.00
2022-09-24T05:05:32.523Z,13.00
2022-09-24T05:08:01.468Z,13.00
2022-09-24T05:10:31.308Z,13.00
2022-09-24T05:12:59.330Z,13.00
2022-09-24T05:15:27.753Z,13.00
2022-09-24T05:17:55.766Z,13.10
2022-09-24T05:20:25.188Z,13.10
2022-09-24T05:22:53.223Z,13.10
2022-09-24T05:25:22.782Z,13.00
2022-09-24T05:27:51.241Z,13.00
2022-09-24T05:30:21.745Z,13.00
2022-09-24T05:32:52.287Z,13.00
2022-09-24T05:35:21.324Z,13.00
2022-09-24T05:37:53.305Z,13.10
2022-09-24T05:40:39.306Z,13.10
2022-09-24T05:43:07.391Z,13.00
2022-09-24T05:45:35.400Z,13.00
2022-09-24T05:48:03.421Z,13.00
2022-09-24T05:50:34.873Z,13.00
2022-09-24T05:53:05.197Z,13.00
2022-09-24T05:55:33.526Z,13.00
2022-09-24T05:58:06.631Z,13.00
2022-09-24T06:00:36.302Z,13.00
2022-09-24T06:03:07.861Z,13.00
2022-09-24T06:05:36.350Z,13.00
2022-09-24T06:08:06.602Z,13.00
2022-09-24T06:10:34.654Z,13.00
2022-09-24T06:13:02.662Z,13.00
2022-09-24T06:15:31.206Z,13.00
2022-09-24T06:17:59.229Z,13.00
2022-09-24T06:20:27.350Z,13.00
2022-09-24T06:22:57.402Z,13.10
2022-09-24T06:25:27.446Z,13.10
2022-09-24T06:28:00.361Z,13.00
2022-09-24T06:30:29.566Z,13.00
2022-09-24T06:33:03.149Z,13.00
2022-09-24T06:35:31.190Z,13.00
2022-09-24T06:37:59.181Z,13.00
2022-09-24T06:40:31.363Z,13.10
2022-09-24T06:43:03.695Z,13.10
2022-09-24T06:45:31.738Z,13.00
2022-09-24T06:48:02.341Z,13.00
2022-09-24T06:50:32.573Z,13.00
2022-09-24T06:53:00.777Z,13.10
2022-09-24T06:55:30.141Z,13.10
2022-09-24T06:58:06.539Z,13.20
2022-09-24T07:00:35.822Z,13.20
2022-09-24T07:03:04.344Z,13.20
2022-09-24T07:05:32.525Z,13.20
2022-09-24T07:08:00.670Z,13.20
2022-09-24T07:10:30.057Z,13.30
2022-09-24T07:12:58.059Z,13.30
2022-09-24T07:15:26.074Z,13.20
2022-09-24T07:17:57.193Z,13.30
2022-09-24T07:20:28.052Z,13.30
2022-09-24T07:22:56.443Z,13.20
2022-09-24T07:25:24.452Z,13.30
2022-09-24T07:27:53.831Z,13.30
2022-09-24T07:30:21.842Z,13.30
2022-09-24T07:32:55.785Z,13.30
2022-09-24T07:35:24.150Z,13.30
2022-09-24T07:37:58.453Z,13.30
2022-09-24T07:40:26.882Z,13.30
2022-09-24T07:42:56.867Z,13.40
2022-09-24T07:45:27.923Z,13.40
2022-09-24T07:47:59.865Z,13.50
2022-09-24T07:50:29.335Z,13.50
2022-09-24T07:52:57.413Z,13.50
2022-09-24T07:55:26.088Z,13.50
2022-09-24T07:57:56.953Z,13.50
2022-09-24T08:00:26.610Z,13.50
2022-09-24T08:02:56.372Z,13.60
2022-09-24T08:05:24.699Z,13.70
2022-09-24T08:07:53.155Z,13.60
2022-09-24T08:10:21.361Z,13.70
2022-09-24T08:12:49.440Z,13.80
2022-09-24T08:15:19.636Z,13.90
2022-09-24T08:17:47.662Z,13.80
2022-09-24T08:20:15.741Z,13.90
2022-09-24T08:22:43.761Z,13.90
2022-09-24T08:25:11.821Z,13.90
2022-09-24T08:27:39.830Z,14.00
2022-09-24T08:30:09.278Z,14.10
2022-09-24T08:32:38.779Z,14.10
2022-09-24T08:35:08.405Z,14.10
2022-09-24T08:37:37.156Z,14.00
2022-09-24T08:40:05.720Z,14.10
2022-09-24T08:42:41.073Z,14.10
2022-09-24T08:45:29.071Z,14.10
2022-09-24T08:48:02.027Z,14.10
2022-09-24T08:50:32.269Z,14.10
2022-09-24T08:53:12.377Z,14.10
2022-09-24T08:55:43.570Z,14.20
2022-09-24T08:58:33.016Z,14.20
2022-09-24T09:01:12.621Z,14.20
2022-09-24T09:03:47.782Z,14.30
2022-09-24T09:06:47.143Z,14.40
2022-09-24T09:09:19.594Z,14.50
2022-09-24T09:11:50.976Z,14.40
2022-09-24T09:14:21.439Z,14.40
2022-09-24T09:16:54.333Z,14.50
2022-09-24T09:19:28.333Z,14.60
2022-09-24T09:22:01.865Z,14.60
2022-09-24T09:24:42.630Z,14.70
2022-09-24T09:27:14.685Z,14.80
2022-09-24T09:29:43.971Z,14.90
2022-09-24T09:32:24.496Z,15.00
2022-09-24T09:35:00.986Z,15.00
2022-09-24T09:37:33.104Z,15.00
2022-09-24T09:40:10.786Z,14.90
2022-09-24T09:42:40.474Z,14.80
2022-09-24T09:45:27.913Z,14.80
2022-09-24T09:47:58.487Z,14.90
2022-09-24T09:50:31.559Z,14.90
2022-09-24T09:52:59.595Z,14.80
2022-09-24T09:55:29.981Z,14.70
2022-09-24T09:58:11.160Z,14.60
2022-09-24T10:00:39.470Z,14.60
2022-09-24T10:03:08.176Z,14.80
2022-09-24T10:05:37.714Z,14.80
2022-09-24T10:08:10.067Z,14.90
2022-09-24T10:10:39.763Z,14.90
2022-09-24T10:13:09.767Z,14.80
2022-09-24T10:15:50.151Z,14.90
2022-09-24T10:18:18.930Z,14.90
2022-09-24T10:20:49.566Z,14.90
2022-09-24T10:23:22.352Z,15.00
2022-09-24T10:25:54.413Z,14.90
2022-09-24T10:28:39.888Z,14.90
2022-09-24T10:31:13.164Z,15.00
2022-09-24T10:33:43.453Z,15.00
2022-09-24T10:36:20.129Z,15.00
2022-09-24T10:38:48.187Z,15.00
2022-09-24T10:41:26.011Z,15.00
2022-09-24T10:43:54.829Z,15.20
2022-09-24T10:46:43.610Z,15.20
2022-09-24T10:49:24.270Z,15.10
2022-09-24T10:52:00.872Z,15.20
2022-09-24T10:54:49.843Z,15.30
2022-09-24T10:57:27.806Z,15.40
2022-09-24T11:00:05.050Z,15.50
2022-09-24T11:03:08.472Z,15.40
2022-09-24T11:05:41.146Z,15.60
2022-09-24T11:08:19.770Z,15.70
2022-09-24T11:11:09.967Z,15.60
2022-09-24T11:13:51.220Z,15.60
2022-09-24T11:16:42.203Z,15.70
2022-09-24T11:19:21.283Z,15.70
2022-09-24T11:22:11.823Z,15.50
2022-09-24T11:25:08.049Z,15.60
2022-09-24T11:27:48.137Z,15.70
2022-09-24T11:30:19.204Z,15.80
2022-09-24T11:33:02.310Z,15.80
2022-09-24T11:35:56.532Z,15.80
2022-09-24T11:38:37.701Z,15.80
2022-09-24T11:41:23.951Z,15.80
2022-09-24T11:44:17.469Z,15.80
2022-09-24T11:46:56.539Z,15.80
2022-09-24T11:49:46.344Z,15.70
2022-09-24T11:52:22.998Z,15.80
2022-09-24T11:54:58.874Z,15.90
2022-09-24T11:57:30.911Z,15.90
2022-09-24T12:00:04.810Z,15.80
2022-09-24T12:02:37.483Z,15.70
2022-09-24T12:05:09.625Z,15.60
2022-09-24T12:07:43.654Z,15.60
2022-09-24T12:10:29.857Z,15.70
2022-09-24T12:13:05.568Z,15.70
2022-09-24T12:15:47.155Z,15.60
2022-09-24T12:18:19.746Z,15.50
2022-09-24T12:20:52.803Z,15.50
2022-09-24T12:23:28.098Z,15.40
2022-09-24T12:25:58.143Z,15.40
2022-09-24T12:28:51.313Z,15.50
2022-09-24T12:31:44.672Z,15.50
2022-09-24T12:34:19.988Z,15.50
2022-09-24T12:36:58.295Z,15.60
2022-09-24T12:39:29.916Z,15.50
2022-09-24T12:42:02.686Z,15.60
2022-09-24T12:44:40.783Z,15.60
2022-09-24T12:47:18.866Z,15.60
2022-09-24T12:49:55.076Z,15.50
2022-09-24T12:52:29.360Z,15.40
2022-09-24T12:55:02.562Z,15.40
2022-09-24T12:57:34.720Z,15.40
2022-09-24T13:00:07.094Z,15.40
2022-09-24T13:02:47.368Z,15.40
2022-09-24T13:05:19.719Z,15.40
2022-09-24T13:07:58.648Z,15.40
2022-09-24T13:10:29.642Z,15.40
2022-09-24T13:12:59.897Z,15.40
2022-09-24T13:15:34.023Z,15.40
2022-09-24T13:18:08.059Z,15.40
2022-09-24T13:20:37.260Z,15.40
2022-09-24T13:23:31.720Z,15.50
2022-09-24T13:26:04.876Z,15.60
2022-09-24T13:28:38.635Z,15.80
2022-09-24T13:31:18.796Z,15.80
2022-09-24T13:33:50.312Z,15.90
2022-09-24T13:36:23.463Z,15.90
2022-09-24T13:38:57.899Z,16.00
2022-09-24T13:41:38.502Z,16.00
2022-09-24T13:44:16.840Z,16.10
2022-09-24T13:46:48.648Z,16.10
2022-09-24T13:49:19.830Z,16.10
2022-09-24T13:51:57.661Z,16.10
2022-09-24T13:54:34.894Z,16.00
2022-09-24T13:57:12.331Z,15.90
2022-09-24T13:59:40.351Z,15.80
2022-09-24T14:02:26.763Z,15.80
2022-09-24T14:04:57.475Z,15.80
2022-09-24T14:07:26.648Z,15.80
2022-09-24T14:10:05.634Z,15.90
2022-09-24T14:12:34.062Z,15.80
2022-09-24T14:15:04.466Z,15.80
2022-09-24T14:17:33.835Z,15.80
2022-09-24T14:20:01.992Z,15.80
2022-09-24T14:22:34.890Z,15.70
2022-09-24T14:25:07.640Z,15.70
2022-09-24T14:27:41.697Z,15.70
2022-09-24T14:30:19.877Z,15.70
2022-09-24T14:32:52.582Z,15.70
2022-09-24T14:35:29.598Z,15.70
2022-09-24T14:38:04.420Z,15.80
2022-09-24T14:40:41.373Z,15.70
2022-09-24T14:43:18.451Z,15.60
2022-09-24T14:45:47.942Z,15.60
2022-09-24T14:48:31.103Z,15.50
2022-09-24T14:50:59.256Z,15.50
2022-09-24T14:53:29.993Z,15.40
2022-09-24T14:55:58.395Z,15.40
2022-09-24T14:58:36.333Z,15.40
2022-09-24T15:01:07.798Z,15.30
2022-09-24T15:03:42.438Z,15.40
2022-09-24T15:06:21.256Z,15.30
2022-09-24T15:09:00.466Z,15.30
2022-09-24T15:11:31.405Z,15.20
2022-09-24T15:14:01.251Z,15.30
2022-09-24T15:16:32.151Z,15.30
2022-09-24T15:19:15.567Z,15.40
2022-09-24T15:21:43.690Z,15.40
2022-09-24T15:24:12.052Z,15.40
2022-09-24T15:26:42.700Z,15.40
2022-09-24T15:29:17.345Z,15.30
2022-09-24T15:31:45.345Z,15.20
2022-09-24T15:34:19.137Z,15.20
2022-09-24T15:36:48.620Z,15.20
2022-09-24T15:39:18.888Z,15.20
2022-09-24T15:41:46.979Z,15.20
2022-09-24T15:44:21.886Z,15.20
2022-09-24T15:46:51.125Z,15.20
2022-09-24T15:49:22.019Z,15.20
2022-09-24T15:51:52.045Z,15.20
2022-09-24T15:54:21.582Z,15.20
2022-09-24T15:56:52.289Z,15.20
2022-09-24T15:59:20.905Z,15.20
2022-09-24T16:01:50.382Z,15.20
2022-09-24T16:04:19.794Z,15.20
2022-09-24T16:06:47.835Z,15.20
2022-09-24T16:09:15.843Z,15.10
2022-09-24T16:11:43.834Z,15.20
2022-09-24T16:14:11.886Z,15.10
2022-09-24T16:16:40.218Z,15.00
2022-09-24T16:19:08.570Z,15.00
2022-09-24T16:21:38.267Z,15.10
2022-09-24T16:24:06.466Z,15.00
2022-09-24T16:26:35.502Z,15.00
2022-09-24T16:29:03.887Z,15.00
2022-09-24T16:31:32.393Z,15.00
2022-09-24T16:34:00.897Z,14.90
2022-09-24T16:36:28.908Z,14.90
2022-09-24T16:38:58.563Z,15.00
2022-09-24T16:41:26.592Z,15.00
2022-09-24T16:43:56.696Z,15.00
2022-09-24T16:46:24.991Z,15.10
2022-09-24T16:48:53.157Z,15.20
2022-09-24T16:51:21.450Z,15.10
2022-09-24T16:53:51.274Z,15.10
2022-09-24T16:56:20.663Z,15.10
2022-09-24T16:58:48.663Z,15.10
2022-09-24T17:01:19.264Z,15.00
2022-09-24T17:03:52.369Z,15.00
2022-09-24T17:06:21.783Z,14.90
2022-09-24T17:09:07.509Z,14.90
2022-09-24T17:11:39.318Z,14.80
2022-09-24T17:14:07.988Z,14.90
2022-09-24T17:16:36.405Z,14.90
2022-09-24T17:19:04.539Z,14.80
2022-09-24T17:21:32.537Z,14.90
2022-09-24T17:24:00.562Z,14.90
2022-09-24T17:26:28.829Z,14.80
2022-09-24T17:28:58.188Z,14.70
2022-09-24T17:31:27.860Z,14.60
2022-09-24T17:33:56.959Z,14.60
2022-09-24T17:36:26.278Z,14.60
2022-09-24T17:38:55.202Z,14.70
2022-09-24T17:41:24.202Z,14.60
2022-09-24T17:43:52.556Z,14.60
2022-09-24T17:46:23.261Z,14.60
2022-09-24T17:48:52.850Z,14.70
2022-09-24T17:51:23.042Z,14.70
2022-09-24T17:53:52.965Z,14.60
2022-09-24T17:56:22.835Z,14.70
2022-09-24T17:58:52.118Z,14.60
2022-09-24T18:01:23.853Z,14.60
2022-09-24T18:03:54.715Z,14.60
2022-09-24T18:06:25.651Z,14.50
2022-09-24T18:08:56.927Z,14.60
2022-09-24T18:11:26.843Z,14.70
2022-09-24T18:13:56.836Z,14.70
2022-09-24T18:16:27.907Z,14.70
2022-09-24T18:18:56.232Z,14.60
2022-09-24T18:21:25.422Z,14.70
2022-09-24T18:23:54.986Z,14.60
2022-09-24T18:26:24.980Z,14.60
2022-09-24T18:28:54.651Z,14.60
2022-09-24T18:31:25.054Z,14.50
2022-09-24T18:33:55.786Z,14.50
2022-09-24T18:36:25.629Z,14.40
2022-09-24T18:38:54.438Z,14.40
2022-09-24T18:41:23.864Z,14.40
2022-09-24T18:43:52.964Z,14.40
2022-09-24T18:46:22.417Z,14.40
2022-09-24T18:48:52.507Z,14.30
2022-09-24T18:51:23.269Z,14.30
2022-09-24T18:53:55.223Z,14.30
2022-09-24T18:56:24.922Z,14.30
2022-09-24T18:58:56.943Z,14.30
2022-09-24T19:01:26.080Z,14.30
2022-09-24T19:03:54.257Z,14.30
2022-09-24T19:06:23.955Z,14.30
2022-09-24T19:08:51.942Z,14.30
2022-09-24T19:11:21.382Z,14.30
2022-09-24T19:13:51.318Z,14.30
2022-09-24T19:16:23.533Z,14.20
2022-09-24T19:18:52.286Z,14.20
2022-09-24T19:21:20.864Z,14.20
2022-09-24T19:23:52.815Z,14.20
2022-09-24T19:26:23.113Z,14.20
2022-09-24T19:28:52.078Z,14.10
2022-09-24T19:31:22.311Z,15.10
2022-09-24T19:33:50.990Z,15.00
2022-09-24T19:36:19.762Z,14.70
2022-09-24T19:38:48.219Z,14.50
2022-09-24T19:41:21.349Z,14.40
2022-09-24T19:43:50.842Z,14.30
2022-09-24T19:46:20.751Z,14.30
2022-09-24T19:48:50.351Z,14.20
2022-09-24T19:51:19.991Z,14.20
2022-09-24T19:53:49.295Z,14.20
2022-09-24T19:56:20.237Z,14.10
2022-09-24T19:58:48.297Z,14.10
2022-09-24T20:01:17.739Z,14.10
2022-09-24T20:03:46.726Z,14.10
2022-09-24T20:06:16.499Z,14.10
2022-09-24T20:08:45.537Z,14.20
2022-09-24T20:11:18.132Z,14.20
2022-09-24T20:13:48.566Z,14.20
2022-09-24T20:16:19.919Z,14.10
2022-09-24T20:18:49.489Z,14.00
2022-09-24T20:21:18.506Z,14.10
2022-09-24T20:23:48.182Z,14.10
2022-09-24T20:26:35.469Z,14.10
2022-09-24T20:29:09.124Z,14.10
2022-09-24T20:31:37.837Z,14.30
2022-09-24T20:34:05.984Z,14.20
2022-09-24T20:36:35.276Z,14.10
2022-09-24T20:39:03.850Z,14.10
2022-09-24T20:41:31.889Z,14.00
2022-09-24T20:43:59.912Z,14.10
2022-09-24T20:46:30.124Z,14.10
2022-09-24T20:48:59.881Z,14.10
2022-09-24T20:51:29.792Z,14.30
2022-09-24T20:53:59.056Z,14.40
2022-09-24T20:56:27.788Z,14.40
2022-09-24T20:58:55.790Z,14.30
2022-09-24T21:01:24.942Z,14.30
2022-09-24T21:03:54.987Z,14.30
2022-09-24T21:06:23.581Z,14.30
2022-09-24T21:08:52.482Z,14.20
2022-09-24T21:11:22.176Z,14.20
2022-09-24T21:13:51.549Z,14.20
2022-09-24T21:16:21.142Z,14.20
2022-09-24T21:18:50.365Z,14.10
2022-09-24T21:21:21.383Z,14.20
2022-09-24T21:23:50.820Z,14.30
2022-09-24T21:26:20.811Z,14.20
2022-09-24T21:28:51.067Z,14.10
2022-09-24T21:31:22.085Z,14.00
2022-09-24T21:33:53.257Z,14.00
2022-09-24T21:36:24.388Z,14.20
2022-09-24T21:38:55.231Z,14.10
2022-09-24T21:41:23.578Z,14.10
2022-09-24T21:43:53.528Z,14.10
2022-09-24T21:46:21.626Z,14.00
2022-09-24T21:48:50.981Z,14.00
2022-09-24T21:51:21.230Z,14.00
2022-09-24T21:53:51.913Z,14.10
2022-09-24T21:56:21.059Z,14.00
2022-09-24T21:58:49.593Z,14.00
2022-09-24T22:01:19.819Z,13.90
2022-09-24T22:03:48.355Z,14.00
2022-09-24T22:06:16.460Z,14.10
2022-09-24T22:08:47.077Z,14.10
2022-09-24T22:11:17.860Z,14.20
2022-09-24T22:13:46.279Z,14.10
2022-09-24T22:16:14.290Z,14.20
2022-09-24T22:18:42.273Z,14.20
2022-09-24T22:21:12.132Z,14.00
2022-09-24T22:23:40.793Z,14.10
2022-09-24T22:26:10.558Z,14.00
2022-09-24T22:28:39.939Z,14.00
2022-09-24T22:31:10.317Z,14.00
2022-09-24T22:33:56.362Z,14.00
2022-09-24T22:36:24.486Z,14.10
2022-09-24T22:38:53.306Z,14.00
2022-09-24T22:41:21.413Z,13.90
2022-09-24T22:43:52.059Z,13.90
2022-09-24T22:46:20.841Z,13.90
2022-09-24T22:48:50.137Z,13.90
2022-09-24T22:51:18.610Z,14.00
2022-09-24T22:53:46.636Z,13.90
2022-09-24T22:56:17.287Z,13.90
2022-09-24T22:58:46.574Z,14.00
2022-09-24T23:01:18.750Z,14.00
2022-09-24T23:03:46.997Z,14.10
2022-09-24T23:06:15.011Z,14.10
2022-09-24T23:08:44.202Z,14.10
2022-09-24T23:11:13.918Z,14.20
2022-09-24T23:13:44.219Z,14.30
2022-09-24T23:16:14.084Z,14.20
2022-09-24T23:18:45.150Z,14.10
2022-09-24T23:21:15.752Z,14.00
2022-09-24T23:23:44.375Z,14.00
2022-09-24T23:26:16.451Z,14.10
2022-09-24T23:28:45.942Z,13.90
2022-09-24T23:31:16.118Z,14.00
2022-09-24T23:33:45.582Z,13.90
2022-09-24T23:36:15.577Z,13.80
2022-09-24T23:38:43.817Z,13.90
2022-09-24T23:41:13.728Z,13.90
2022-09-24T23:43:42.325Z,13.80
2022-09-24T23:46:11.733Z,13.80
2022-09-24T23:48:40.105Z,13.80
2022-09-24T23:51:09.982Z,13.80
2022-09-24T23:53:38.326Z,13.70
2022-09-24T23:56:07.870Z,13.80
2022-09-24T23:58:36.402Z,13.70
